»·PEaware :: DAL1259 KSNA-KSJC

DAL1259 :: KSNA-KSJC

FLIGHT INFORMATION

Flight Status: Arrived
Operator:
Delta Air Lines
More flights by this operator :: More flights under this callsign
Pilot: Mitchell L. (19304)
Aircraft: AIRBUS A319
(A319)
More flights by this aircraft type
Origin: KSNA John Wayne-Orange Co
United States
Destination: KSJC Mineta San Jose Intl
United States
More flights between these airports :: More routes between these airports
Route: HHERO3 IKAYE TESEA SCTRR TROXX SILCN4
File this flight plan on PilotEdge
Remarks:
Altitude:
(Current/Filed)
36,000ft
Speed:
(Current/Filed)
475kts
Departed: 04-Dec-18 07:50 PM
Arrived: 04-Dec-18 08:44 PM
Distance/Time
Traveled:
297nm/0:54
Distance/Time
To Go:
Arrived

Flight Plot

Page will automatically refresh every two minutes.

Flight plan parsing failed; only flown route is shown


Map Options




Map Legend


Flown Route
Filed Route
Departure Airport
Arrival Airport
Navaid (VOR, NDB)
Fix

Horizontal Profiles

Position Reports

Time Latitude Longitude Heading Altitude Ground
Speed
04-Dec-18 19:26 33.677171 -117.863695 118 54ft 0kts
04-Dec-18 19:27 33.677171 -117.863695 118 54ft 0kts
04-Dec-18 19:28 33.677171 -117.863695 118 54ft 0kts
04-Dec-18 19:29 33.677171 -117.863695 118 54ft 0kts
04-Dec-18 19:30 33.677171 -117.863695 118 54ft 0kts
04-Dec-18 19:31 33.677171 -117.863695 118 54ft 0kts
04-Dec-18 19:32 33.677171 -117.863695 118 54ft 0kts
04-Dec-18 19:33 33.677171 -117.863695 118 54ft 0kts
04-Dec-18 19:34 33.677171 -117.863695 118 54ft 0kts
04-Dec-18 19:35 33.677171 -117.863695 118 54ft 0kts
04-Dec-18 19:36 33.677171 -117.863695 118 54ft 0kts
04-Dec-18 19:37 33.677171 -117.863695 118 54ft 0kts
04-Dec-18 19:38 33.677171 -117.863695 118 54ft 0kts
04-Dec-18 19:39 33.677172 -117.863696 118 54ft 0kts
04-Dec-18 19:40 33.677180 -117.863714 118 54ft 1kts
04-Dec-18 19:41 33.677314 -117.864267 74 54ft 2kts
04-Dec-18 19:42 33.677067 -117.864615 27 54ft 0kts
04-Dec-18 19:43 33.677067 -117.864614 27 54ft 0kts
04-Dec-18 19:44 33.677067 -117.864614 27 54ft 0kts
04-Dec-18 19:45 33.677576 -117.864301 26 56ft 0kts
04-Dec-18 19:46 33.679195 -117.863280 30 58ft 18kts
04-Dec-18 19:47 33.680688 -117.863230 297 58ft 4kts
04-Dec-18 19:48 33.681185 -117.865367 206 58ft 0kts
04-Dec-18 19:49 33.670808 -117.871809 205 67ft 147kts
04-Dec-18 19:50 33.627318 -117.894180 183 2347ft 197kts
04-Dec-18 19:51 33.565458 -117.906389 212 4702ft 269kts
04-Dec-18 19:52 33.510257 -117.968254 219 7903ft 274kts
04-Dec-18 19:53 33.461708 -118.040069 234 10669ft 290kts
04-Dec-18 19:54 33.417773 -118.136462 251 11825ft 376kts
04-Dec-18 19:55 33.433325 -118.267587 280 13987ft 409kts
04-Dec-18 19:56 33.482638 -118.391972 309 14194ft 436kts
04-Dec-18 19:57 33.578969 -118.479441 317 17439ft 431kts
04-Dec-18 19:58 33.674065 -118.567652 315 19938ft 431kts
04-Dec-18 19:59 33.766532 -118.654318 314 22476ft 425kts
04-Dec-18 20:00 33.856566 -118.739375 313 24851ft 418kts
04-Dec-18 20:01 33.948241 -118.826018 312 26558ft 426kts
04-Dec-18 20:02 34.041619 -118.914093 311 29651ft 418kts
04-Dec-18 20:03 34.132317 -119.000597 308 31305ft 432kts
04-Dec-18 20:04 34.218402 -119.099565 303 33332ft 422kts
04-Dec-18 20:05 34.301366 -119.198657 302 35078ft 418kts
04-Dec-18 20:06 34.382893 -119.296400 302 35998ft 420kts
04-Dec-18 20:07 34.467233 -119.397854 303 36013ft 434kts
04-Dec-18 20:08 34.554174 -119.502576 303 36017ft 444kts
04-Dec-18 20:10 34.641678 -119.608204 303 36013ft 445kts
04-Dec-18 20:11 34.728159 -119.713240 303 36015ft 442kts
04-Dec-18 20:12 34.814956 -119.818999 303 36017ft 443kts
04-Dec-18 20:13 34.901515 -119.924503 302 36021ft 437kts
04-Dec-18 20:14 34.987143 -120.029307 302 36022ft 438kts
04-Dec-18 20:15 35.073420 -120.135224 301 36019ft 440kts
04-Dec-18 20:16 35.160470 -120.240984 304 36022ft 444kts
04-Dec-18 20:17 35.258845 -120.335620 310 36030ft 454kts
04-Dec-18 20:18 35.359494 -120.427722 310 36049ft 454kts
04-Dec-18 20:19 35.460401 -120.520586 310 36050ft 455kts
04-Dec-18 20:20 35.563087 -120.611941 316 36024ft 463kts
04-Dec-18 20:21 35.671742 -120.695766 315 36045ft 466kts
04-Dec-18 20:22 35.780501 -120.781185 315 35545ft 453kts
04-Dec-18 20:23 35.890440 -120.868252 315 33874ft 480kts
04-Dec-18 20:24 36.000944 -120.955583 316 31877ft 468kts
04-Dec-18 20:25 36.102830 -121.050736 312 30228ft 456kts
04-Dec-18 20:26 36.201262 -121.144817 314 28759ft 454kts
04-Dec-18 20:26 36.278427 -121.218518 315 27231ft 447kts
04-Dec-18 20:28 36.390128 -121.325658 316 24507ft 434kts
04-Dec-18 20:29 36.480976 -121.412795 319 21560ft 409kts
04-Dec-18 20:30 36.577695 -121.481373 341 18965ft 397kts
04-Dec-18 20:30 36.666511 -121.507932 344 17413ft 388kts
04-Dec-18 20:32 36.782859 -121.549906 339 13943ft 360kts
04-Dec-18 20:33 36.873881 -121.589294 340 11404ft 327kts
04-Dec-18 20:33 36.942491 -121.618553 342 9747ft 300kts
04-Dec-18 20:35 37.028854 -121.655235 342 7422ft 270kts
04-Dec-18 20:35 37.086463 -121.679882 342 5901ft 252kts
04-Dec-18 20:36 37.150295 -121.707035 341 4476ft 237kts
04-Dec-18 20:37 37.201624 -121.753174 320 3266ft 219kts
04-Dec-18 20:38 37.241184 -121.796419 319 2707ft 180kts
04-Dec-18 20:39 37.278513 -121.837448 318 2097ft 169kts
04-Dec-18 20:40 37.313450 -121.875834 318 1201ft 156kts
04-Dec-18 20:41 37.342660 -121.907916 318 470ft 134kts
04-Dec-18 20:42 37.366615 -121.934299 320 71ft 41kts
04-Dec-18 20:43 37.369514 -121.935168 49 71ft 1kts
04-Dec-18 20:44 37.370667 -121.933482 60 71ft 12kts
04-Dec-18 20:45 37.369205 -121.930723 59 71ft 6kts
04-Dec-18 20:46 37.369401 -121.930449 47 71ft 0kts
04-Dec-18 20:47 37.369401 -121.930449 47 71ft 0kts
04-Dec-18 20:48 37.369401 -121.930449 47 71ft 0kts

Navigation Log

Ident Type
Flight plan parsing failed, navigation log unavailable